WetterOnline ( http://www.wetteronline.de )

Wetter aktuell Taunus (in 800m)

Aktuelles Wetter: Kleiner Feldberg (802m)

6-stündlich | Neueste Meldungen
Ortszeit Temperatur Wetter
Fr, 22.02. 19:00 3.4° C leicht bewölkt
Fr, 22.02. 13:00 5.5° C bedeckt
Fr, 22.02. 7:00 4.4° C Nebel
Fr, 22.02. 1:00 4.6° C Nebel
Do, 21.02. 19:00 4.8° C wolkig
Do, 21.02. 13:00 5.5° C bewölkt
Do, 21.02. 7:00 2.7° C wolkig
Do, 21.02. 1:00 3.1° C bedeckt
Ortszeit Temperatur Wetter
Fr, 22.02. 21:30 3.0° C wolkig
Fr, 22.02. 21:20 3.0° C wolkig
Fr, 22.02. 21:10 3.3° C wolkig
Fr, 22.02. 21:00 3.4° C wolkig
Fr, 22.02. 20:50 3.4° C wolkig
Fr, 22.02. 20:40 3.5° C wolkig
Fr, 22.02. 20:30 3.5° C wolkig
Fr, 22.02. 20:00 3.2° C wolkenlos
Fr, 22.02. 19:30 3.4° C wolkenlos
Fr, 22.02. 19:00 3.4° C leicht bewölkt
Fr, 22.02. 18:30 3.7° C leicht bewölkt
Ortszeit Relative Feuchte Sichtweite
Fr, 22.02. 19:00 89% 19 km
Fr, 22.02. 13:00 84% 45 km
Fr, 22.02. 7:00 100% 0.6 km
Fr, 22.02. 1:00 100% <100 m
Do, 21.02. 19:00 91% 5.0 km
Do, 21.02. 13:00 83% 12 km
Do, 21.02. 7:00 94% 5.0 km
Do, 21.02. 1:00 85% 17 km
Ortszeit Relative Feuchte Sichtweite
Fr, 22.02. 21:30 91% 15 km
Fr, 22.02. 21:20 91% -
Fr, 22.02. 21:10 89% -
Fr, 22.02. 21:00 86% 22 km
Fr, 22.02. 20:50 86% -
Fr, 22.02. 20:40 87% -
Fr, 22.02. 20:30 86% 23 km
Fr, 22.02. 20:00 87% 24 km
Fr, 22.02. 19:30 85% 28 km
Fr, 22.02. 19:00 89% 19 km
Fr, 22.02. 18:30 91% 16 km
Ortszeit Niederschlagsmenge Niederschlagsart
Fr, 22.02. 19:00 0.0 l/m2 in 12 Std. -
Fr, 22.02. 13:00 0.0 l/m2 in 6 Std. -
Fr, 22.02. 7:00 0.1 l/m2 in 12 Std. Sprühregen
Fr, 22.02. 1:00 0.1 l/m2 in 6 Std. Regen
Do, 21.02. 19:00 0.1 l/m2 in 12 Std. Regen
Do, 21.02. 13:00 0.0 l/m2 in 6 Std. -
Do, 21.02. 7:00 0.0 l/m2 in 12 Std. -
Do, 21.02. 1:00 0.0 l/m2 in 6 Std. -
Ortszeit Niederschlagsmenge Niederschlagsart
Fr, 22.02. 21:30 0.0 l/m2 in 1 Std. -
Fr, 22.02. 21:20 keine Meldung -
Fr, 22.02. 21:10 keine Meldung -
Fr, 22.02. 21:00 0.0 l/m2 in 1 Std. -
Fr, 22.02. 20:50 keine Meldung -
Fr, 22.02. 20:40 keine Meldung -
Fr, 22.02. 20:30 0.0 l/m2 in 1 Std. -
Fr, 22.02. 20:00 0.0 l/m2 in 1 Std. -
Fr, 22.02. 19:30 0.0 l/m2 in 1 Std. -
Fr, 22.02. 19:00 0.0 l/m2 in 1 Std. -
Fr, 22.02. 18:30 0.0 l/m2 in 1 Std. -
Ortszeit Stärke Spitze Richtung
km/h Bft. km/h Grad Sektor
Fr, 22.02. 19:00 13 3 30 80° O
Fr, 22.02. 13:00 13 3 33 30° NO
Fr, 22.02. 7:00 18 3 43 350° N
Fr, 22.02. 1:00 17 3 33 310° NW
Do, 21.02. 19:00 9 2 31 300° NW
Do, 21.02. 13:00 9 2 30 290° W
Do, 21.02. 7:00 13 3 30 280° W
Do, 21.02. 1:00 11 2 22 280° W
Ortszeit Stärke Spitze Richtung
km/h Bft. km/h Grad Sektor
Fr, 22.02. 21:30 18 3 29 70° O
Fr, 22.02. 21:20 18 3 - 70° O
Fr, 22.02. 21:10 18 3 - 70° O
Fr, 22.02. 21:00 17 3 26 60° NO
Fr, 22.02. 20:50 17 3 - 60° NO
Fr, 22.02. 20:40 15 3 - 60° NO
Fr, 22.02. 20:30 14 3 25 50° NO
Fr, 22.02. 20:00 17 3 26 50° NO
Fr, 22.02. 19:30 14 3 25 60° NO
Fr, 22.02. 19:00 13 3 30 80° O
Fr, 22.02. 18:30 13 3 28 70° O
Ortszeit Untergrenze Bedeckung Gattung
total tief tief mittel hoch
Fr, 22.02. 19:00 10500 m 5/8 0/8 - - -
Fr, 22.02. 13:00 480 m 8/8 8/8 - - -
Fr, 22.02. 7:00 <30 m 8/8 0/8 - - -
Fr, 22.02. 1:00 <30 m 8/8 0/8 - - -
Do, 21.02. 19:00 930 m 5/8 5/8 - - -
Do, 21.02. 13:00 360 m 8/8 7/8 - - -
Do, 21.02. 7:00 720 m 6/8 6/8 - - -
Do, 21.02. 1:00 4500 m 8/8 8/8 - - -
Ortszeit Bedeckungsgrad in Achtel und Wolkenuntergrenze
Fr, 22.02. 21:30 8(10500m) 8(10500m)
Fr, 22.02. 21:20 8(10500m) 8(10500m)
Fr, 22.02. 21:10 8(10500m) 8(10500m)
Fr, 22.02. 21:00 8(10500m)
Fr, 22.02. 20:50 8(10500m)
Fr, 22.02. 20:40 8(10500m)
Fr, 22.02. 20:30 6(10500m) 7(10500m)
Fr, 22.02. 20:00 4(10500m)
Fr, 22.02. 19:30 keine Wolken
Fr, 22.02. 19:00 5(10500m)
Fr, 22.02. 18:30 1(60m) 4(420m)
Ortszeit Stationsdruck (hPa) Tendenz (hPa in 3 Std.)
Fr, 22.02. 19:00 938 + 0,2
Fr, 22.02. 13:00 937 + 1,4
Fr, 22.02. 7:00 934 + 1,6
Fr, 22.02. 1:00 932 + 0,4
Do, 21.02. 19:00 931 + 0,9
Do, 21.02. 13:00 930 + 0,5
Do, 21.02. 7:00 928 - 0,1
Do, 21.02. 1:00 928 + 0,5
Ortszeit Stationsdruck (hPa) Tendenz (hPa in 3 Std.)
Fr, 22.02. 21:30 939 + 1,0
Fr, 22.02. 21:20 939 keine Meldung
Fr, 22.02. 21:10 939 keine Meldung
Fr, 22.02. 21:00 939 + 0,9
Fr, 22.02. 20:50 939 keine Meldung
Fr, 22.02. 20:40 939 keine Meldung
Fr, 22.02. 20:30 939 + 0,7
Fr, 22.02. 20:00 939 + 0,5
Fr, 22.02. 19:30 939 + 0,1
Fr, 22.02. 19:00 938 + 0,2
Fr, 22.02. 18:30 938 + 0,2
Ortszeit Schneehöhe (cm)
Fr, 22.02. 19:00 0
Fr, 22.02. 13:00 0
Fr, 22.02. 7:00 0
Fr, 22.02. 1:00 0
Do, 21.02. 19:00 0
Do, 21.02. 13:00 0
Do, 21.02. 7:00 0
Do, 21.02. 1:00 0
Ortszeit Schneehöhe (cm)
Fr, 22.02. 21:30 0
Fr, 22.02. 21:20 0
Fr, 22.02. 21:10 0
Fr, 22.02. 21:00 0
Fr, 22.02. 20:50 0
Fr, 22.02. 20:40 0
Fr, 22.02. 20:30 0
Fr, 22.02. 20:00 0
Fr, 22.02. 19:30 0
Fr, 22.02. 19:00 0
Fr, 22.02. 18:30 0
Link zu dieser Seite / Seite empfehlen

Das Wetter in ...